createdAt,value
2018-03-09T00:00:00.572Z,797.31
2018-03-09T00:00:04.692Z,797.3
2018-03-09T00:00:08.697Z,797.31
2018-03-09T00:00:13.026Z,797.32
2018-03-09T00:00:17.245Z,797.27
2018-03-09T00:00:21.362Z,797.31
2018-03-09T00:00:25.480Z,797.27
2018-03-09T00:00:29.375Z,797.32
2018-03-09T00:00:33.710Z,797.27
2018-03-09T00:00:37.721Z,797.3
2018-03-09T00:00:41.727Z,797.29
2018-03-09T00:00:45.835Z,797.28
2018-03-09T00:00:50.052Z,797.29
2018-03-09T00:00:54.384Z,797.25
2018-03-09T00:00:58.388Z,797.28
2018-03-09T00:01:02.715Z,797.29
2018-03-09T00:01:06.830Z,797.29
2018-03-09T00:01:11.047Z,797.29
2018-03-09T00:01:15.172Z,797.26
2018-03-09T00:01:19.069Z,797.25
2018-03-09T00:01:23.177Z,797.28
2018-03-09T00:01:27.398Z,797.26
2018-03-09T00:01:31.507Z,797.28
2018-03-09T00:01:35.527Z,797.25
2018-03-09T00:01:39.866Z,797.27
2018-03-09T00:01:44.092Z,797.26
2018-03-09T00:01:48.252Z,797.28
2018-03-09T00:01:52.471Z,797.25
2018-03-09T00:01:56.695Z,797.24
2018-03-09T00:02:00.957Z,797.23
2018-03-09T00:02:05.127Z,797.27
2018-03-09T00:02:09.450Z,797.25
2018-03-09T00:02:13.565Z,797.27
2018-03-09T00:02:17.783Z,797.25
2018-03-09T00:02:22.008Z,797.28
2018-03-09T00:02:26.012Z,797.25
2018-03-09T00:02:30.021Z,797.23
2018-03-09T00:02:33.922Z,797.21
2018-03-09T00:02:38.035Z,797.22
2018-03-09T00:02:42.157Z,797.23
2018-03-09T00:02:46.274Z,797.23
2018-03-09T00:02:50.388Z,797.22
2018-03-09T00:02:54.605Z,797.21
2018-03-09T00:02:58.612Z,797.2
2018-03-09T00:03:03.029Z,797.19
2018-03-09T00:03:07.070Z,797.18
2018-03-09T00:03:11.186Z,797.19
2018-03-09T00:03:15.197Z,797.2
2018-03-09T00:03:19.098Z,797.23
2018-03-09T00:03:23.323Z,797.19
2018-03-09T00:03:27.541Z,797.2
2018-03-09T00:03:31.772Z,797.22
2018-03-09T00:03:35.778Z,797.17
2018-03-09T00:03:40.100Z,797.2
2018-03-09T00:03:44.206Z,797.17
2018-03-09T00:03:48.423Z,797.17
2018-03-09T00:03:52.328Z,797.18
2018-03-09T00:03:56.543Z,797.17
2018-03-09T00:04:00.775Z,797.18
2018-03-09T00:04:05.014Z,797.12
2018-03-09T00:04:09.124Z,797.13
2018-03-09T00:04:13.246Z,797.15
2018-03-09T00:04:17.304Z,797.15
2018-03-09T00:04:21.529Z,797.16
2018-03-09T00:04:25.534Z,797.13
2018-03-09T00:04:29.541Z,797.11
2018-03-09T00:04:33.440Z,797.1
2018-03-09T00:04:37.666Z,797.09
2018-03-09T00:04:41.788Z,797.13
2018-03-09T00:04:45.814Z,797.12
2018-03-09T00:04:49.939Z,797.13
2018-03-09T00:04:54.158Z,797.13
2018-03-09T00:04:58.164Z,797.16
2018-03-09T00:05:02.330Z,797.11
2018-03-09T00:05:06.586Z,797.14
2018-03-09T00:05:10.595Z,797.12
2018-03-09T00:05:14.712Z,797.14
2018-03-09T00:05:18.736Z,797.11
2018-03-09T00:05:22.846Z,797.13
2018-03-09T00:05:27.075Z,797.11
2018-03-09T00:05:31.188Z,797.11
2018-03-09T00:05:35.302Z,797.12
2018-03-09T00:05:39.450Z,797.15
2018-03-09T00:05:43.568Z,797.1
2018-03-09T00:05:47.915Z,797.11
2018-03-09T00:05:51.925Z,797.1
2018-03-09T00:05:56.034Z,797.1
2018-03-09T00:06:00.364Z,797.06
2018-03-09T00:06:04.831Z,797.06
2018-03-09T00:06:08.955Z,797.09
2018-03-09T00:06:13.071Z,797.08
2018-03-09T00:06:17.295Z,797.08
2018-03-09T00:06:21.196Z,797.11
2018-03-09T00:06:25.420Z,797.07
2018-03-09T00:06:29.422Z,797.07
2018-03-09T00:06:33.640Z,797.06
2018-03-09T00:06:38.024Z,797.07
2018-03-09T00:06:42.252Z,797.08
2018-03-09T00:06:46.470Z,797.08
2018-03-09T00:06:50.370Z,797.08
2018-03-09T00:06:54.476Z,797.08
2018-03-09T00:06:58.587Z,797.07
2018-03-09T00:07:03.061Z,797.06
2018-03-09T00:07:07.290Z,797.08
2018-03-09T00:07:11.295Z,797.06
2018-03-09T00:07:15.405Z,797.06
2018-03-09T00:07:19.621Z,797.07
2018-03-09T00:07:23.980Z,797.05
2018-03-09T00:07:28.290Z,797.08
2018-03-09T00:07:32.414Z,797.09
2018-03-09T00:07:36.638Z,797.12
2018-03-09T00:07:40.636Z,797.07
2018-03-09T00:07:44.859Z,797.06
2018-03-09T00:07:48.982Z,797.1
2018-03-09T00:07:53.003Z,797.08
2018-03-09T00:07:57.230Z,797.1
2018-03-09T00:08:01.339Z,797.09
2018-03-09T00:08:05.575Z,797.1
2018-03-09T00:08:09.806Z,797.12
2018-03-09T00:08:13.915Z,797.08
2018-03-09T00:08:18.028Z,797.1
2018-03-09T00:08:22.152Z,797.1
2018-03-09T00:08:26.269Z,797.11
2018-03-09T00:08:30.495Z,797.1
2018-03-09T00:08:34.715Z,797.1
2018-03-09T00:08:38.940Z,797.11
2018-03-09T00:08:43.267Z,797.1
2018-03-09T00:08:47.278Z,797.12
2018-03-09T00:08:51.391Z,797.13
2018-03-09T00:08:55.402Z,797.1
2018-03-09T00:08:59.411Z,797.16
2018-03-09T00:09:03.436Z,797.17
2018-03-09T00:09:07.437Z,797.13
2018-03-09T00:09:11.552Z,797.12
2018-03-09T00:09:15.767Z,797.14
2018-03-09T00:09:19.565Z,797.12
2018-03-09T00:09:23.581Z,797.12
2018-03-09T00:09:27.697Z,797.12
2018-03-09T00:09:31.919Z,797.14
2018-03-09T00:09:36.031Z,797.15
2018-03-09T00:09:40.255Z,797.12
2018-03-09T00:09:44.473Z,797.13
2018-03-09T00:09:48.691Z,797.09
2018-03-09T00:09:52.913Z,797.09
2018-03-09T00:09:57.148Z,797.09
2018-03-09T00:10:01.373Z,797.13
2018-03-09T00:10:05.393Z,797.16
2018-03-09T00:10:09.413Z,797.17
2018-03-09T00:10:13.748Z,797.16
2018-03-09T00:10:17.755Z,797.14
2018-03-09T00:10:21.866Z,797.14
2018-03-09T00:10:25.872Z,797.16
2018-03-09T00:10:30.203Z,797.16
2018-03-09T00:10:34.424Z,797.17
2018-03-09T00:10:38.530Z,797.15
2018-03-09T00:10:42.642Z,797.14
2018-03-09T00:10:46.979Z,797.15
2018-03-09T00:10:51.202Z,797.13
2018-03-09T00:10:55.312Z,797.15
2018-03-09T00:10:59.659Z,797.15
2018-03-09T00:11:03.888Z,797.16
2018-03-09T00:11:07.896Z,797.16
2018-03-09T00:11:11.796Z,797.1
2018-03-09T00:11:16.016Z,797.13
2018-03-09T00:11:20.333Z,797.13
2018-03-09T00:11:24.673Z,797.14
2018-03-09T00:11:28.784Z,797.1
2018-03-09T00:11:32.800Z,797.16
2018-03-09T00:11:37.025Z,797.15
2018-03-09T00:11:41.251Z,797.18
2018-03-09T00:11:45.591Z,797.14
2018-03-09T00:11:49.601Z,797.17
2018-03-09T00:11:53.615Z,797.19
2018-03-09T00:11:57.725Z,797.15
2018-03-09T00:12:01.943Z,797.18
2018-03-09T00:12:06.285Z,797.17
2018-03-09T00:12:10.409Z,797.18
2018-03-09T00:12:14.626Z,797.18
2018-03-09T00:12:18.746Z,797.17
2018-03-09T00:12:22.976Z,797.14
2018-03-09T00:12:27.245Z,797.17
2018-03-09T00:12:31.153Z,797.11
2018-03-09T00:12:35.266Z,797.14
2018-03-09T00:12:39.481Z,797.13
2018-03-09T00:12:43.490Z,797.13
2018-03-09T00:12:47.616Z,797.15
2018-03-09T00:12:51.846Z,797.15
2018-03-09T00:12:55.957Z,797.17
2018-03-09T00:12:59.957Z,797.17
2018-03-09T00:13:04.367Z,797.17
2018-03-09T00:13:08.279Z,797.16
2018-03-09T00:13:12.506Z,797.15
2018-03-09T00:13:16.618Z,797.16
2018-03-09T00:13:20.840Z,797.22
2018-03-09T00:13:24.848Z,797.2
2018-03-09T00:13:28.856Z,797.17
2018-03-09T00:13:33.079Z,797.22
2018-03-09T00:13:37.307Z,797.23
2018-03-09T00:13:41.529Z,797.18
2018-03-09T00:13:45.751Z,797.19
2018-03-09T00:13:50.075Z,797.17
2018-03-09T00:13:54.411Z,797.23
2018-03-09T00:13:58.737Z,797.26
2018-03-09T00:14:02.965Z,797.24
2018-03-09T00:14:07.028Z,797.24
2018-03-09T00:14:11.138Z,797.26
2018-03-09T00:14:15.143Z,797.26
2018-03-09T00:14:18.927Z,797.26
2018-03-09T00:14:23.259Z,797.27
2018-03-09T00:14:27.261Z,797.27
2018-03-09T00:14:31.379Z,797.26
2018-03-09T00:14:35.174Z,797.29
2018-03-09T00:14:39.183Z,797.27
2018-03-09T00:14:43.302Z,797.29
2018-03-09T00:14:47.417Z,797.29
2018-03-09T00:14:51.648Z,797.26
2018-03-09T00:14:55.871Z,797.29
2018-03-09T00:14:59.878Z,797.32
2018-03-09T00:15:03.884Z,797.29
2018-03-09T00:15:07.993Z,797.29
2018-03-09T00:15:12.215Z,797.3
2018-03-09T00:15:16.325Z,797.33
2018-03-09T00:15:20.440Z,797.31
2018-03-09T00:15:24.456Z,797.31
2018-03-09T00:15:28.574Z,797.3
2018-03-09T00:15:32.480Z,797.3
2018-03-09T00:15:36.486Z,797.32
2018-03-09T00:15:40.412Z,797.32
2018-03-09T00:15:44.521Z,797.34
2018-03-09T00:15:48.741Z,797.37
2018-03-09T00:15:52.855Z,797.34
2018-03-09T00:15:56.859Z,797.34
2018-03-09T00:16:01.085Z,797.39
2018-03-09T00:16:05.529Z,797.39
2018-03-09T00:16:09.548Z,797.4
2018-03-09T00:16:13.543Z,797.37
2018-03-09T00:16:17.776Z,797.39
2018-03-09T00:16:21.777Z,797.4
2018-03-09T00:16:25.784Z,797.39
2018-03-09T00:16:29.913Z,797.41
2018-03-09T00:16:34.021Z,797.41
2018-03-09T00:16:38.248Z,797.38
2018-03-09T00:16:42.464Z,797.39
2018-03-09T00:16:46.512Z,797.37
2018-03-09T00:16:50.517Z,797.44
2018-03-09T00:16:54.635Z,797.45
2018-03-09T00:16:58.969Z,797.42
2018-03-09T00:17:03.288Z,797.44
2018-03-09T00:17:07.301Z,797.43
2018-03-09T00:17:11.197Z,797.46
2018-03-09T00:17:15.418Z,797.48
2018-03-09T00:17:19.535Z,797.46
2018-03-09T00:17:23.548Z,797.48
2018-03-09T00:17:27.876Z,797.5
2018-03-09T00:17:32.096Z,797.48
2018-03-09T00:17:36.213Z,797.45
2018-03-09T00:17:40.428Z,797.46
2018-03-09T00:17:44.645Z,797.5
2018-03-09T00:17:48.659Z,797.49
2018-03-09T00:17:52.989Z,797.47
2018-03-09T00:17:57.332Z,797.46
2018-03-09T00:18:01.335Z,797.52
2018-03-09T00:18:05.477Z,797.54
2018-03-09T00:18:09.588Z,797.55
2018-03-09T00:18:13.597Z,797.49
2018-03-09T00:18:17.921Z,797.54
2018-03-09T00:18:22.043Z,797.56
2018-03-09T00:18:26.163Z,797.55
2018-03-09T00:18:30.387Z,797.54
2018-03-09T00:18:34.503Z,797.57
2018-03-09T00:18:38.513Z,797.56
2018-03-09T00:18:42.842Z,797.58
2018-03-09T00:18:47.061Z,797.53
2018-03-09T00:18:51.386Z,797.54
2018-03-09T00:18:55.502Z,797.58
2018-03-09T00:18:59.729Z,797.59
2018-03-09T00:19:03.839Z,797.59
2018-03-09T00:19:07.845Z,797.62
2018-03-09T00:19:11.959Z,797.58
2018-03-09T00:19:15.853Z,797.54
2018-03-09T00:19:19.861Z,797.57
2018-03-09T00:19:24.086Z,797.6
2018-03-09T00:19:28.091Z,797.56
2018-03-09T00:19:32.201Z,797.58
2018-03-09T00:19:36.531Z,797.63
2018-03-09T00:19:40.754Z,797.61
2018-03-09T00:19:44.863Z,797.63
2018-03-09T00:19:49.192Z,797.61
2018-03-09T00:19:53.304Z,797.62
2018-03-09T00:19:57.412Z,797.66
2018-03-09T00:20:01.529Z,797.61
2018-03-09T00:20:06.035Z,797.64
2018-03-09T00:20:10.043Z,797.64
2018-03-09T00:20:14.152Z,797.66
2018-03-09T00:20:18.054Z,797.63
2018-03-09T00:20:22.164Z,797.61
2018-03-09T00:20:26.313Z,797.62
2018-03-09T00:20:30.434Z,797.63
2018-03-09T00:20:34.657Z,797.61
2018-03-09T00:20:38.772Z,797.65
2018-03-09T00:20:42.672Z,797.62
2018-03-09T00:20:46.792Z,797.65
2018-03-09T00:20:51.123Z,797.61
2018-03-09T00:20:55.138Z,797.65
2018-03-09T00:20:59.355Z,797.66
2018-03-09T00:21:03.519Z,797.62
2018-03-09T00:21:07.739Z,797.66
2018-03-09T00:21:11.524Z,797.64
2018-03-09T00:21:15.755Z,797.64
2018-03-09T00:21:19.876Z,797.66
2018-03-09T00:21:24.103Z,797.65
2018-03-09T00:21:28.218Z,797.67
2018-03-09T00:21:32.441Z,797.66
2018-03-09T00:21:36.554Z,797.67
2018-03-09T00:21:40.783Z,797.67
2018-03-09T00:21:45.108Z,797.65
2018-03-09T00:21:49.119Z,797.64
2018-03-09T00:21:53.128Z,797.63
2018-03-09T00:21:57.142Z,797.64
2018-03-09T00:22:01.264Z,797.65
2018-03-09T00:22:05.630Z,797.62
2018-03-09T00:22:09.751Z,797.64
2018-03-09T00:22:13.969Z,797.62
2018-03-09T00:22:18.183Z,797.63
2018-03-09T00:22:22.509Z,797.63
2018-03-09T00:22:26.841Z,797.63
2018-03-09T00:22:30.968Z,797.62
2018-03-09T00:22:35.201Z,797.61
2018-03-09T00:22:39.416Z,797.65
2018-03-09T00:22:43.425Z,797.62
2018-03-09T00:22:47.642Z,797.59
2018-03-09T00:22:51.859Z,797.62
2018-03-09T00:22:55.860Z,797.6
2018-03-09T00:23:00.077Z,797.59
2018-03-09T00:23:04.193Z,797.64
2018-03-09T00:23:08.420Z,797.64
2018-03-09T00:23:12.432Z,797.63
2018-03-09T00:23:16.652Z,797.66
2018-03-09T00:23:20.659Z,797.63
2018-03-09T00:23:24.670Z,797.64
2018-03-09T00:23:28.680Z,797.63
2018-03-09T00:23:32.788Z,797.62
2018-03-09T00:23:36.908Z,797.62
2018-03-09T00:23:41.019Z,797.62
2018-03-09T00:23:45.025Z,797.62
2018-03-09T00:23:49.257Z,797.63
2018-03-09T00:23:53.265Z,797.66
2018-03-09T00:23:57.403Z,797.66
2018-03-09T00:24:01.541Z,797.62
2018-03-09T00:24:06.122Z,797.62
2018-03-09T00:24:10.339Z,797.61
2018-03-09T00:24:14.461Z,797.64
2018-03-09T00:24:18.688Z,797.62
2018-03-09T00:24:22.803Z,797.62
2018-03-09T00:24:26.771Z,797.59
2018-03-09T00:24:30.778Z,797.61
2018-03-09T00:24:34.892Z,797.59
2018-03-09T00:24:38.781Z,797.6
2018-03-09T00:24:43.004Z,797.57
2018-03-09T00:24:47.017Z,797.55
2018-03-09T00:24:51.180Z,797.59
2018-03-09T00:24:55.290Z,797.56
2018-03-09T00:24:59.523Z,797.56
2018-03-09T00:25:03.527Z,797.59
2018-03-09T00:25:07.750Z,797.59
2018-03-09T00:25:12.002Z,797.6
2018-03-09T00:25:16.180Z,797.58
2018-03-09T00:25:20.407Z,797.58
2018-03-09T00:25:24.619Z,797.58
2018-03-09T00:25:28.733Z,797.56
2018-03-09T00:25:32.741Z,797.56
2018-03-09T00:25:36.851Z,797.57
2018-03-09T00:25:40.856Z,797.56
2018-03-09T00:25:44.646Z,797.56
2018-03-09T00:25:48.758Z,797.55
2018-03-09T00:25:52.879Z,797.56
2018-03-09T00:25:57.205Z,797.56
2018-03-09T00:26:01.318Z,797.53
2018-03-09T00:26:05.431Z,797.57
2018-03-09T00:26:09.329Z,797.54
2018-03-09T00:26:13.561Z,797.53
2018-03-09T00:26:17.782Z,797.55
2018-03-09T00:26:21.897Z,797.6
2018-03-09T00:26:26.123Z,797.54
2018-03-09T00:27:02.126Z,797.55
2018-03-09T00:27:06.380Z,797.57
2018-03-09T00:27:10.386Z,797.54
2018-03-09T00:27:14.597Z,797.52
2018-03-09T00:27:18.705Z,797.5
2018-03-09T00:27:22.823Z,797.56
2018-03-09T00:27:26.822Z,797.55
2018-03-09T00:27:30.935Z,797.56
2018-03-09T00:27:35.058Z,797.56
2018-03-09T00:27:39.058Z,797.56
2018-03-09T00:27:43.177Z,797.57
2018-03-09T00:27:47.499Z,797.56
2018-03-09T00:27:51.615Z,797.54
2018-03-09T00:27:55.734Z,797.56
2018-03-09T00:27:59.846Z,797.54
2018-03-09T00:28:04.070Z,797.58
2018-03-09T00:28:08.180Z,797.58
2018-03-09T00:28:12.405Z,797.49
2018-03-09T00:28:16.623Z,797.56
2018-03-09T00:28:20.845Z,797.57
2018-03-09T00:28:24.848Z,797.56
2018-03-09T00:28:29.165Z,797.57
2018-03-09T00:28:33.493Z,797.53
2018-03-09T00:28:37.603Z,797.56
2018-03-09T00:28:41.714Z,797.54
2018-03-09T00:28:45.829Z,797.56
2018-03-09T00:28:50.064Z,797.57
2018-03-09T00:28:54.065Z,797.56
2018-03-09T00:28:58.176Z,797.58
2018-03-09T00:29:02.896Z,797.52
2018-03-09T00:29:07.008Z,797.56
2018-03-09T00:29:11.016Z,797.56
2018-03-09T00:29:15.125Z,797.56
2018-03-09T00:29:19.444Z,797.57
2018-03-09T00:29:23.454Z,797.54
2018-03-09T00:29:27.666Z,797.56
2018-03-09T00:29:31.684Z,797.56
2018-03-09T00:29:35.801Z,797.57
2018-03-09T00:29:39.910Z,797.62
2018-03-09T00:29:43.911Z,797.59
2018-03-09T00:29:48.241Z,797.59
2018-03-09T00:29:52.462Z,797.6
2018-03-09T00:29:56.689Z,797.61
2018-03-09T00:30:00.800Z,797.6
2018-03-09T00:30:05.489Z,797.64
2018-03-09T00:30:09.609Z,797.61
2018-03-09T00:30:13.723Z,797.65
2018-03-09T00:30:17.619Z,797.63
2018-03-09T00:30:21.836Z,797.66
2018-03-09T00:30:26.168Z,797.66
2018-03-09T00:30:30.398Z,797.67
2018-03-09T00:30:34.459Z,797.64
2018-03-09T00:30:38.570Z,797.67
2018-03-09T00:30:42.575Z,797.67
2018-03-09T00:30:46.587Z,797.71
2018-03-09T00:30:50.488Z,797.72
2018-03-09T00:30:54.605Z,797.69
2018-03-09T00:30:58.611Z,797.73
2018-03-09T00:31:02.722Z,797.69
2018-03-09T00:31:07.060Z,797.72
2018-03-09T00:31:11.066Z,797.75
2018-03-09T00:31:15.294Z,797.76
2018-03-09T00:31:19.294Z,797.76
2018-03-09T00:31:23.086Z,797.75
2018-03-09T00:31:27.203Z,797.77
2018-03-09T00:31:31.096Z,797.76
2018-03-09T00:31:35.213Z,797.72
2018-03-09T00:31:39.441Z,797.76
2018-03-09T00:31:43.446Z,797.77
2018-03-09T00:31:47.560Z,797.77
2018-03-09T00:31:51.715Z,797.83
2018-03-09T00:31:55.823Z,797.8
2018-03-09T00:32:00.040Z,797.8
2018-03-09T00:32:04.265Z,797.78
2018-03-09T00:32:08.376Z,797.77
2018-03-09T00:32:12.378Z,797.81
2018-03-09T00:32:16.602Z,797.8
2018-03-09T00:32:20.749Z,797.8
2018-03-09T00:32:25.023Z,797.8
2018-03-09T00:32:29.241Z,797.8
2018-03-09T00:32:33.247Z,797.83
2018-03-09T00:32:37.360Z,797.84
2018-03-09T00:32:41.689Z,797.85
2018-03-09T00:32:45.699Z,797.86
2018-03-09T00:32:49.763Z,797.86
2018-03-09T00:32:53.772Z,797.84
2018-03-09T00:32:58.028Z,797.87
2018-03-09T00:33:02.356Z,797.86
2018-03-09T00:33:06.696Z,797.82
2018-03-09T00:33:10.702Z,797.83
2018-03-09T00:33:14.923Z,797.87
2018-03-09T00:33:18.937Z,797.83
2018-03-09T00:33:23.269Z,797.81
2018-03-09T00:33:27.489Z,797.82
2018-03-09T00:33:31.606Z,797.82
2018-03-09T00:33:35.935Z,797.83
2018-03-09T00:33:39.953Z,797.84
2018-03-09T00:33:44.001Z,797.88
2018-03-09T00:33:48.112Z,797.88
2018-03-09T00:33:52.113Z,797.88
2018-03-09T00:33:56.222Z,797.87
2018-03-09T00:34:00.337Z,797.87
2018-03-09T00:34:04.858Z,797.86
2018-03-09T00:34:08.754Z,797.85
2018-03-09T00:34:12.760Z,797.86
2018-03-09T00:34:16.986Z,797.86
2018-03-09T00:34:21.205Z,797.88
2018-03-09T00:34:25.329Z,797.86
2018-03-09T00:34:29.229Z,797.88
2018-03-09T00:34:33.457Z,797.84
2018-03-09T00:34:37.674Z,797.86
2018-03-09T00:34:41.784Z,797.85
2018-03-09T00:34:45.797Z,797.85
2018-03-09T00:34:49.921Z,797.77
2018-03-09T00:34:53.922Z,797.85
2018-03-09T00:34:58.041Z,797.85
2018-03-09T00:35:02.162Z,797.8
2018-03-09T00:35:06.271Z,797.83
2018-03-09T00:35:10.596Z,797.85
2018-03-09T00:35:14.716Z,797.81
2018-03-09T00:35:18.933Z,797.82
2018-03-09T00:35:23.253Z,797.79
2018-03-09T00:35:27.481Z,797.82
2018-03-09T00:35:31.488Z,797.82
2018-03-09T00:35:35.495Z,797.84
2018-03-09T00:35:39.724Z,797.79
2018-03-09T00:35:43.732Z,797.81
2018-03-09T00:35:47.952Z,797.85
2018-03-09T00:35:52.272Z,797.83
2018-03-09T00:35:56.387Z,797.75
2018-03-09T00:36:00.621Z,797.75
2018-03-09T00:36:04.523Z,797.75
2018-03-09T00:36:08.747Z,797.76
2018-03-09T00:36:12.985Z,797.77
2018-03-09T00:36:17.208Z,797.78
2018-03-09T00:36:21.314Z,797.76
2018-03-09T00:36:25.558Z,797.74
2018-03-09T00:36:29.887Z,797.73
2018-03-09T00:36:33.993Z,797.78
2018-03-09T00:36:37.997Z,797.76
2018-03-09T00:36:42.116Z,797.77
2018-03-09T00:36:46.342Z,797.74
2018-03-09T00:36:50.466Z,797.72
2018-03-09T00:36:54.679Z,797.75
2018-03-09T00:36:58.786Z,797.7
2018-03-09T00:37:02.904Z,797.7
2018-03-09T00:37:07.128Z,797.72
2018-03-09T00:37:11.343Z,797.7
2018-03-09T00:37:15.561Z,797.73
2018-03-09T00:37:19.572Z,797.73
2018-03-09T00:37:23.685Z,797.77
2018-03-09T00:37:27.580Z,797.75
2018-03-09T00:37:31.691Z,797.76
2018-03-09T00:37:35.696Z,797.72
2018-03-09T00:37:39.918Z,797.73
2018-03-09T00:37:44.137Z,797.75
2018-03-09T00:37:48.468Z,797.73
2018-03-09T00:37:52.150Z,797.72
2018-03-09T00:37:56.378Z,797.72
2018-03-09T00:38:00.712Z,797.73
2018-03-09T00:38:04.975Z,797.72
2018-03-09T00:38:09.090Z,797.74
2018-03-09T00:38:13.206Z,797.75
2018-03-09T00:38:17.208Z,797.75
2018-03-09T00:38:21.218Z,797.74
2018-03-09T00:38:25.335Z,797.71
2018-03-09T00:38:29.445Z,797.71
2018-03-09T00:38:33.560Z,797.73
2018-03-09T00:38:37.790Z,797.72
2018-03-09T00:38:42.002Z,797.72
2018-03-09T00:38:46.224Z,797.71
2018-03-09T00:38:50.542Z,797.72
2018-03-09T00:38:54.762Z,797.72
2018-03-09T00:38:58.773Z,797.73
2018-03-09T00:39:03.354Z,797.68
2018-03-09T00:39:07.586Z,797.73
2018-03-09T00:39:11.700Z,797.72
2018-03-09T00:39:15.816Z,797.71
2018-03-09T00:39:19.926Z,797.74
2018-03-09T00:39:24.040Z,797.72
2018-03-09T00:39:28.154Z,797.68
2018-03-09T00:39:32.508Z,797.67
2018-03-09T00:39:36.622Z,797.7
2018-03-09T00:39:40.951Z,797.72
2018-03-09T00:39:45.086Z,797.74
2018-03-09T00:39:49.196Z,797.73
2018-03-09T00:39:53.076Z,797.76
2018-03-09T00:39:57.272Z,797.75
2018-03-09T00:40:01.281Z,797.76
2018-03-09T00:40:05.587Z,797.74
2018-03-09T00:40:09.703Z,797.72
2018-03-09T00:40:13.707Z,797.75
2018-03-09T00:40:17.925Z,797.71
2018-03-09T00:40:22.250Z,797.73
2018-03-09T00:40:26.362Z,797.74
2018-03-09T00:40:30.701Z,797.75
2018-03-09T00:40:34.765Z,797.73
2018-03-09T00:40:39.033Z,797.75
2018-03-09T00:40:43.255Z,797.74
2018-03-09T00:40:47.527Z,797.75
2018-03-09T00:40:51.696Z,797.76
2018-03-09T00:40:55.913Z,797.76
2018-03-09T00:41:00.036Z,797.69
2018-03-09T00:41:04.674Z,797.75
2018-03-09T00:41:08.679Z,797.76
2018-03-09T00:41:12.900Z,797.73
2018-03-09T00:41:17.017Z,797.72
2018-03-09T00:41:21.129Z,797.77
2018-03-09T00:41:25.355Z,797.82
2018-03-09T00:41:29.477Z,797.77
2018-03-09T00:41:33.662Z,797.78
2018-03-09T00:41:37.780Z,797.81
2018-03-09T00:41:41.825Z,797.8
2018-03-09T00:41:45.943Z,797.8
2018-03-09T00:41:50.067Z,797.82
2018-03-09T00:41:54.185Z,797.8
2018-03-09T00:41:58.342Z,797.81
2018-03-09T00:42:02.381Z,797.83
2018-03-09T00:42:06.381Z,797.8
2018-03-09T00:42:10.721Z,797.82
2018-03-09T00:42:14.938Z,797.84
2018-03-09T00:42:19.159Z,797.86
2018-03-09T00:42:23.164Z,797.81
2018-03-09T00:42:27.557Z,797.82
2018-03-09T00:42:31.750Z,797.86
2018-03-09T00:42:35.707Z,797.84
2018-03-09T00:42:39.836Z,797.85
2018-03-09T00:42:43.872Z,797.88
2018-03-09T00:42:48.113Z,797.87
2018-03-09T00:42:52.331Z,797.85
2018-03-09T00:42:56.550Z,797.86
2018-03-09T00:43:00.671Z,797.83
2018-03-09T00:43:04.621Z,797.86
2018-03-09T00:43:08.943Z,797.86
2018-03-09T00:43:13.057Z,797.88
2018-03-09T00:43:17.389Z,797.89
2018-03-09T00:43:21.612Z,797.82
2018-03-09T00:43:25.406Z,797.85
2018-03-09T00:43:29.526Z,797.88
2018-03-09T00:43:33.427Z,797.89
2018-03-09T00:43:37.373Z,797.89
2018-03-09T00:43:41.562Z,797.9
2018-03-09T00:43:45.690Z,797.89
2018-03-09T00:43:49.709Z,797.91
2018-03-09T00:43:53.818Z,797.92
2018-03-09T00:43:58.036Z,797.87
2018-03-09T00:44:02.340Z,797.86
2018-03-09T00:44:06.687Z,797.88
2018-03-09T00:44:10.824Z,797.88
2018-03-09T00:44:15.160Z,797.89
2018-03-09T00:44:19.387Z,797.84
2018-03-09T00:44:23.605Z,797.91
2018-03-09T00:44:27.390Z,797.9
2018-03-09T00:44:31.398Z,797.87
2018-03-09T00:44:35.727Z,797.85
2018-03-09T00:44:39.838Z,797.85
2018-03-09T00:44:43.950Z,797.83
2018-03-09T00:44:48.061Z,797.87
2018-03-09T00:44:52.286Z,797.87
2018-03-09T00:44:56.500Z,797.89
2018-03-09T00:45:00.507Z,797.87
2018-03-09T00:45:04.674Z,797.94
2018-03-09T00:45:09.003Z,797.92
2018-03-09T00:45:13.111Z,797.93
2018-03-09T00:45:17.218Z,797.89
2018-03-09T00:45:21.224Z,797.89
2018-03-09T00:45:25.457Z,797.89
2018-03-09T00:45:29.689Z,797.92
2018-03-09T00:45:33.796Z,797.9
2018-03-09T00:45:37.808Z,797.92
2018-03-09T00:45:41.841Z,797.91
2018-03-09T00:45:46.362Z,797.89
2018-03-09T00:45:50.498Z,797.92
2018-03-09T00:45:54.722Z,797.92
2018-03-09T00:45:58.727Z,797.89
2018-03-09T00:46:02.844Z,797.93
2018-03-09T00:46:06.979Z,797.89
2018-03-09T00:46:11.308Z,797.89
2018-03-09T00:46:15.634Z,797.91
2018-03-09T00:46:19.865Z,797.91
2018-03-09T00:46:24.085Z,797.91
2018-03-09T00:46:28.363Z,797.89
2018-03-09T00:46:32.474Z,797.94
2018-03-09T00:46:36.481Z,797.9
2018-03-09T00:46:40.496Z,797.92
2018-03-09T00:46:44.743Z,797.92
2018-03-09T00:46:48.753Z,797.89
2018-03-09T00:46:52.976Z,797.88
2018-03-09T00:46:57.091Z,797.92
2018-03-09T00:47:01.102Z,797.9
2018-03-09T00:47:05.482Z,797.9
2018-03-09T00:47:09.706Z,797.91
2018-03-09T00:47:13.822Z,797.91
2018-03-09T00:47:17.835Z,797.91
2018-03-09T00:47:21.845Z,797.9
2018-03-09T00:47:26.063Z,797.9
2018-03-09T00:47:30.174Z,797.88
2018-03-09T00:47:34.392Z,797.87
2018-03-09T00:47:38.290Z,797.89
2018-03-09T00:47:42.398Z,797.92
2018-03-09T00:47:46.719Z,797.9
2018-03-09T00:47:50.773Z,797.91
2018-03-09T00:47:54.998Z,797.89
2018-03-09T00:47:59.220Z,797.88
2018-03-09T00:48:03.436Z,797.91
2018-03-09T00:48:07.548Z,797.91
2018-03-09T00:48:11.660Z,797.91
2018-03-09T00:48:15.775Z,797.9
2018-03-09T00:48:19.993Z,797.89
2018-03-09T00:48:23.996Z,797.89
2018-03-09T00:48:28.234Z,797.92
2018-03-09T00:48:32.580Z,797.91
2018-03-09T00:48:36.805Z,797.91
2018-03-09T00:48:41.125Z,797.91
2018-03-09T00:48:45.461Z,797.86
2018-03-09T00:48:49.684Z,797.87
2018-03-09T00:48:53.735Z,797.88
2018-03-09T00:48:58.113Z,797.86
2018-03-09T00:49:02.216Z,797.88
2018-03-09T00:49:06.330Z,797.93
2018-03-09T00:49:10.658Z,797.91
2018-03-09T00:49:14.770Z,797.93
2018-03-09T00:49:18.995Z,797.88
2018-03-09T00:49:23.218Z,797.88
2018-03-09T00:49:27.342Z,797.9
2018-03-09T00:49:31.340Z,797.87
2018-03-09T00:49:35.556Z,797.93
2018-03-09T00:49:39.666Z,797.92
2018-03-09T00:49:43.767Z,797.92
2018-03-09T00:49:47.904Z,797.9
2018-03-09T00:49:51.911Z,797.95
2018-03-09T00:49:56.029Z,797.92
2018-03-09T00:50:00.159Z,797.95
2018-03-09T00:50:03.956Z,797.95
2018-03-09T00:50:07.852Z,797.92
2018-03-09T00:50:11.971Z,797.94
2018-03-09T00:50:16.081Z,797.97
2018-03-09T00:50:20.412Z,797.97
2018-03-09T00:50:24.639Z,797.96
2018-03-09T00:50:28.644Z,797.89
2018-03-09T00:50:32.984Z,797.92
2018-03-09T00:50:36.993Z,797.87
2018-03-09T00:50:40.997Z,797.93
2018-03-09T00:50:44.896Z,797.95
2018-03-09T00:50:49.120Z,797.98
2018-03-09T00:50:53.124Z,797.95
2018-03-09T00:50:57.450Z,797.95
2018-03-09T00:51:01.455Z,797.95
2018-03-09T00:51:05.833Z,797.94
2018-03-09T00:51:09.944Z,797.96
2018-03-09T00:51:14.281Z,797.93
2018-03-09T00:51:18.502Z,797.97
2018-03-09T00:51:22.614Z,797.92
2018-03-09T00:51:26.623Z,797.95
2018-03-09T00:51:30.639Z,797.95
2018-03-09T00:51:34.864Z,797.95
2018-03-09T00:51:38.970Z,797.92
2018-03-09T00:52:19.454Z,797.93
2018-03-09T00:52:23.614Z,797.94
2018-03-09T00:52:27.838Z,797.91
2018-03-09T00:52:32.158Z,797.92
2018-03-09T00:52:36.278Z,797.9
2018-03-09T00:52:40.289Z,797.87
2018-03-09T00:52:44.642Z,797.89
2018-03-09T00:52:48.954Z,797.92
2018-03-09T00:52:53.166Z,797.94
2018-03-09T00:52:57.180Z,797.94